createdAt,value
2019-03-28T00:00:45.231Z,14.77
2019-03-28T00:06:10.935Z,13.00
2019-03-28T00:11:36.381Z,11.67
2019-03-28T00:17:04.190Z,11.67
2019-03-28T00:22:43.966Z,12.70
2019-03-28T00:28:08.336Z,12.77
2019-03-28T00:33:33.457Z,11.33
2019-03-28T00:38:58.225Z,13.33
2019-03-28T00:44:23.087Z,12.43
2019-03-28T00:49:47.717Z,10.07
2019-03-28T00:55:12.814Z,11.60
2019-03-28T01:00:38.264Z,11.23
2019-03-28T01:06:03.765Z,12.50
2019-03-28T01:11:28.667Z,12.43
2019-03-28T01:16:53.504Z,12.77
2019-03-28T01:22:18.345Z,11.73
2019-03-28T01:27:43.371Z,10.07
2019-03-28T01:33:08.272Z,10.60
2019-03-28T01:38:33.576Z,11.43
2019-03-28T01:43:58.370Z,10.33
2019-03-28T01:49:22.772Z,11.43
2019-03-28T01:54:47.763Z,10.60
2019-03-28T02:00:12.985Z,10.60
2019-03-28T02:05:37.786Z,11.30
2019-03-28T02:11:03.177Z,10.60
2019-03-28T02:16:28.583Z,10.13
2019-03-28T02:21:53.556Z,10.30
2019-03-28T02:27:23.876Z,9.80
2019-03-28T02:32:44.538Z,11.17
2019-03-28T02:38:09.118Z,10.67
2019-03-28T02:43:33.730Z,10.17
2019-03-28T02:48:58.758Z,10.40
2019-03-28T02:54:23.572Z,10.60
2019-03-28T02:59:48.714Z,9.43
2019-03-28T03:05:13.994Z,10.03
2019-03-28T03:10:38.559Z,9.87
2019-03-28T03:16:03.537Z,9.90
2019-03-28T03:21:28.606Z,9.97
2019-03-28T03:26:53.617Z,10.50
2019-03-28T03:32:18.767Z,12.00
2019-03-28T03:37:44.529Z,9.87
2019-03-28T03:43:09.592Z,9.23
2019-03-28T03:48:35.104Z,9.57
2019-03-28T03:53:59.927Z,9.37
2019-03-28T03:59:24.947Z,9.83
2019-03-28T04:04:50.123Z,10.57
2019-03-28T04:10:16.125Z,11.00
2019-03-28T04:15:40.953Z,10.33
2019-03-28T04:21:06.001Z,9.57
2019-03-28T04:26:31.813Z,10.40
2019-03-28T04:31:57.411Z,9.30
2019-03-28T04:37:30.715Z,9.53
2019-03-28T04:42:55.702Z,9.53
2019-03-28T04:48:20.394Z,10.10
2019-03-28T04:53:45.054Z,9.63
2019-03-28T04:59:09.641Z,10.13
2019-03-28T05:04:34.432Z,10.07
2019-03-28T05:09:59.783Z,9.20
2019-03-28T05:15:24.989Z,11.70
2019-03-28T05:20:49.587Z,10.10
2019-03-28T05:26:14.167Z,11.57
2019-03-28T05:31:39.447Z,9.80
2019-03-28T05:37:04.637Z,10.63
2019-03-28T05:42:30.376Z,10.77
2019-03-28T05:47:55.292Z,11.67
2019-03-28T05:53:20.514Z,11.90
2019-03-28T05:58:45.719Z,11.20
2019-03-28T06:04:10.697Z,10.87
2019-03-28T06:09:40.129Z,11.60
2019-03-28T06:15:03.874Z,10.93
2019-03-28T06:20:39.617Z,13.53
2019-03-28T06:26:04.323Z,14.13
2019-03-28T06:31:29.246Z,14.37
2019-03-28T06:36:54.220Z,13.43
2019-03-28T06:42:18.879Z,16.17
2019-03-28T06:47:43.546Z,14.47
2019-03-28T06:53:08.730Z,15.90
2019-03-28T06:58:33.984Z,15.80
2019-03-28T07:03:59.210Z,16.60
2019-03-28T07:09:24.057Z,16.33
2019-03-28T07:14:48.938Z,16.20
2019-03-28T07:20:13.890Z,16.93
2019-03-28T07:25:39.215Z,16.60
2019-03-28T07:31:04.759Z,16.30
2019-03-28T07:36:29.834Z,16.60
2019-03-28T07:41:55.103Z,15.70
2019-03-28T07:47:27.018Z,15.90
2019-03-28T07:52:55.145Z,15.53
2019-03-28T07:58:19.513Z,16.43
2019-03-28T08:03:45.025Z,15.47
2019-03-28T08:09:11.170Z,15.03
2019-03-28T08:14:36.373Z,15.53
2019-03-28T08:20:01.486Z,15.40
2019-03-28T08:25:26.665Z,16.67
2019-03-28T08:30:51.681Z,17.73
2019-03-28T08:36:17.649Z,17.23
2019-03-28T08:41:42.102Z,16.53
2019-03-28T08:47:07.570Z,16.10
2019-03-28T08:52:31.872Z,14.60
2019-03-28T08:57:56.631Z,14.57
2019-03-28T09:03:22.222Z,15.17
2019-03-28T09:08:46.696Z,12.83
2019-03-28T09:14:11.719Z,13.23
2019-03-28T09:19:38.995Z,13.37
2019-03-28T09:25:03.368Z,13.17
2019-03-28T09:30:48.134Z,13.27
2019-03-28T09:36:05.984Z,11.40
2019-03-28T09:41:30.955Z,10.63
2019-03-28T09:46:56.386Z,14.53
2019-03-28T09:52:21.382Z,15.13
2019-03-28T09:57:46.402Z,15.90
2019-03-28T10:03:11.979Z,16.03
2019-03-28T10:08:36.799Z,15.20
2019-03-28T10:14:02.106Z,11.13
2019-03-28T10:19:26.899Z,13.17
2019-03-28T10:24:51.887Z,13.93
2019-03-28T10:30:17.653Z,15.47
2019-03-28T10:35:42.696Z,13.50
2019-03-28T10:41:08.054Z,12.13
2019-03-28T10:46:33.506Z,11.10
2019-03-28T10:51:58.601Z,10.67
2019-03-28T10:57:29.911Z,9.37
2019-03-28T11:02:50.542Z,9.57
2019-03-28T11:08:16.518Z,7.60
2019-03-28T11:13:41.632Z,9.23
2019-03-28T11:19:06.561Z,7.47
2019-03-28T11:24:31.963Z,7.53
2019-03-28T11:29:56.263Z,9.83
2019-03-28T11:35:21.541Z,8.83
2019-03-28T11:40:46.421Z,9.60
2019-03-28T11:46:11.658Z,10.07
2019-03-28T11:51:36.582Z,10.27
2019-03-28T11:57:01.907Z,10.13
2019-03-28T12:02:27.471Z,10.47
2019-03-28T12:07:52.458Z,10.67
2019-03-28T12:13:17.055Z,10.70
2019-03-28T12:18:41.964Z,11.87
2019-03-28T12:24:07.476Z,10.60
2019-03-28T12:29:35.688Z,11.37
2019-03-28T12:34:58.323Z,10.60
2019-03-28T12:40:23.694Z,11.17
2019-03-28T12:45:54.061Z,10.40
2019-03-28T12:51:22.045Z,10.77
2019-03-28T12:56:45.657Z,10.63
2019-03-28T13:02:10.255Z,10.97
2019-03-28T13:07:35.283Z,11.17
2019-03-28T13:13:00.586Z,11.57
2019-03-28T13:18:25.383Z,12.70
2019-03-28T13:23:50.841Z,12.27
2019-03-28T13:29:15.641Z,11.40
2019-03-28T13:34:40.297Z,11.00
2019-03-28T13:40:05.594Z,10.07
2019-03-28T13:45:31.003Z,10.00
2019-03-28T13:50:55.941Z,10.90
2019-03-28T13:56:21.348Z,10.90
2019-03-28T14:01:46.476Z,10.87
2019-03-28T14:07:11.528Z,11.63
2019-03-28T14:12:36.645Z,9.48
2019-03-28T14:18:01.445Z,10.93
2019-03-28T14:23:26.491Z,12.80
2019-03-28T14:28:51.184Z,11.20
2019-03-28T14:34:16.276Z,11.68
2019-03-28T14:39:41.335Z,10.88
2019-03-28T14:45:06.447Z,10.78
2019-03-28T14:50:39.243Z,10.45
2019-03-28T14:56:04.442Z,11.50
2019-03-28T15:01:29.428Z,11.00
2019-03-28T15:06:54.715Z,11.57
2019-03-28T15:12:19.743Z,12.43
2019-03-28T15:17:45.074Z,12.63
2019-03-28T15:23:10.322Z,13.58
2019-03-28T15:28:35.410Z,13.68
2019-03-28T15:34:00.779Z,12.88
2019-03-28T15:39:25.305Z,12.45
2019-03-28T15:44:50.273Z,12.55
2019-03-28T15:50:15.729Z,10.70
2019-03-28T15:55:40.394Z,13.85
2019-03-28T16:01:05.355Z,11.60
2019-03-28T16:06:29.980Z,12.33
2019-03-28T16:12:02.452Z,12.00
2019-03-28T16:17:21.767Z,12.88
2019-03-28T16:22:46.764Z,12.30
2019-03-28T16:28:11.809Z,11.45
2019-03-28T16:33:36.657Z,10.53
2019-03-28T16:39:01.884Z,11.43
2019-03-28T16:44:27.185Z,12.37
2019-03-28T16:49:52.377Z,11.33
2019-03-28T16:55:26.163Z,11.25
2019-03-28T17:00:43.783Z,10.05
2019-03-28T17:06:08.771Z,10.10
2019-03-28T17:11:33.419Z,11.35
2019-03-28T17:16:58.700Z,10.13
2019-03-28T17:22:23.825Z,9.60
2019-03-28T17:27:48.964Z,8.28
2019-03-28T17:33:17.656Z,6.35
2019-03-28T17:38:40.737Z,5.42
2019-03-28T17:44:06.378Z,5.67
2019-03-28T17:49:30.814Z,6.65
2019-03-28T17:54:55.709Z,5.53
2019-03-28T18:00:20.918Z,6.10
2019-03-28T18:05:57.354Z,6.08
2019-03-28T18:11:13.037Z,6.08
2019-03-28T18:16:38.663Z,5.40
2019-03-28T18:22:04.316Z,5.60
2019-03-28T18:27:29.265Z,4.95
2019-03-28T18:32:54.745Z,5.37
2019-03-28T18:38:20.212Z,5.55
2019-03-28T18:43:44.982Z,5.43
2019-03-28T18:49:10.170Z,5.43
2019-03-28T18:54:34.860Z,6.10
2019-03-28T19:00:00.115Z,5.30
2019-03-28T19:05:24.717Z,6.28
2019-03-28T19:10:50.969Z,6.90
2019-03-28T19:16:16.234Z,8.13
2019-03-28T19:21:40.834Z,10.40
2019-03-28T19:27:05.764Z,11.03
2019-03-28T19:32:32.451Z,14.25
2019-03-28T19:37:58.505Z,15.23
2019-03-28T19:43:24.315Z,12.00
2019-03-28T19:48:49.874Z,13.15
2019-03-28T19:54:14.849Z,13.53
2019-03-28T19:59:40.102Z,14.50
2019-03-28T20:05:06.013Z,13.57
2019-03-28T20:10:31.412Z,10.50
2019-03-28T20:15:56.799Z,12.67
2019-03-28T20:21:21.811Z,13.00
2019-03-28T20:26:46.634Z,10.97
2019-03-28T20:32:12.161Z,12.33
2019-03-28T20:37:37.933Z,13.25
2019-03-28T20:43:02.826Z,14.68
2019-03-28T20:48:27.812Z,12.70
2019-03-28T20:53:53.342Z,13.00
2019-03-28T20:59:18.965Z,13.73
2019-03-28T21:04:44.105Z,14.30
2019-03-28T21:10:12.735Z,15.23
2019-03-28T21:15:37.431Z,14.33
2019-03-28T21:21:02.916Z,14.63
2019-03-28T21:26:29.425Z,16.37
2019-03-28T21:31:53.961Z,15.07
2019-03-28T21:37:18.962Z,16.93
2019-03-28T21:42:43.573Z,18.53
2019-03-28T21:48:08.284Z,16.50
2019-03-28T21:53:33.411Z,17.70
2019-03-28T21:58:58.138Z,17.63
2019-03-28T22:04:23.400Z,17.77
2019-03-28T22:09:48.460Z,17.57
2019-03-28T22:15:13.967Z,18.77
2019-03-28T22:20:39.135Z,17.17
2019-03-28T22:26:03.508Z,17.97
2019-03-28T22:31:28.722Z,20.77
2019-03-28T22:36:57.613Z,23.03
2019-03-28T22:42:20.109Z,22.17
2019-03-28T22:47:44.923Z,20.90
2019-03-28T22:53:09.298Z,23.10
2019-03-28T22:58:35.043Z,22.33
2019-03-28T23:04:00.597Z,22.27
2019-03-28T23:09:25.642Z,18.77
2019-03-28T23:14:50.680Z,22.25
2019-03-28T23:20:16.306Z,20.33
2019-03-28T23:25:41.083Z,18.97
2019-03-28T23:31:06.599Z,18.30
2019-03-28T23:36:31.349Z,40.40
2019-03-28T23:41:55.746Z,35.13
2019-03-28T23:47:20.978Z,32.40
2019-03-28T23:52:45.712Z,25.77
2019-03-28T23:58:10.937Z,21.63
